Terminal Aerodrome Forecast
Issued by NWS Lubbock, TX

Home | Current Version | Previous Version | Text Only | Print | Product List | Glossary On
Versions: 1 2 3 4 5 6 7 8 9 10 11 12 13 14 15
423
FTUS44 KLUB 210749 AAB
TAFLBB
TAF AMD
KLBB 210749Z 2108/2206 18016G26KT P6SM FEW250
     FM210800 20015KT P6SM BKN008
     FM211200 22015KT P6SM BKN150
     FM220000 34013G23KT P6SM FEW250=

USA.gov is the U.S. government's official web portal to all federal, state and local government web resources and services.